createdAt,value
2019-02-25T00:00:20.845Z,18.63
2019-02-25T00:02:49.289Z,15.70
2019-02-25T00:05:17.705Z,13.63
2019-02-25T00:07:46.204Z,21.63
2019-02-25T00:10:14.716Z,16.17
2019-02-25T00:12:43.128Z,16.47
2019-02-25T00:15:11.859Z,17.33
2019-02-25T00:17:41.001Z,17.30
2019-02-25T00:20:11.725Z,17.50
2019-02-25T00:22:40.175Z,12.13
2019-02-25T00:25:13.404Z,16.43
2019-02-25T00:27:41.847Z,14.57
2019-02-25T00:30:17.873Z,15.57
2019-02-25T00:32:46.280Z,13.47
2019-02-25T00:35:14.694Z,15.53
2019-02-25T00:37:43.155Z,12.77
2019-02-25T00:40:13.254Z,16.47
2019-02-25T00:42:41.835Z,16.60
2019-02-25T00:45:17.881Z,14.23
2019-02-25T00:47:46.376Z,12.00
2019-02-25T00:50:20.315Z,13.00
2019-02-25T00:52:48.814Z,16.10
2019-02-25T00:55:17.367Z,15.20
2019-02-25T00:57:45.792Z,16.93
2019-02-25T01:00:19.165Z,15.27
2019-02-25T01:02:47.665Z,15.37
2019-02-25T01:05:17.212Z,13.00
2019-02-25T01:07:45.668Z,16.67
2019-02-25T01:10:15.340Z,15.07
2019-02-25T01:12:45.396Z,18.30
2019-02-25T01:15:14.753Z,15.47
2019-02-25T01:17:43.330Z,14.63
2019-02-25T01:20:16.139Z,13.93
2019-02-25T01:22:44.685Z,17.07
2019-02-25T01:25:18.924Z,15.03
2019-02-25T01:27:47.422Z,16.20
2019-02-25T01:30:18.304Z,13.40
2019-02-25T01:32:46.745Z,15.13
2019-02-25T01:35:15.823Z,16.77
2019-02-25T01:37:44.283Z,14.37
2019-02-25T01:40:15.918Z,13.67
2019-02-25T01:42:44.391Z,14.47
2019-02-25T01:45:20.892Z,13.97
2019-02-25T01:47:49.402Z,12.50
2019-02-25T01:50:17.822Z,15.70
2019-02-25T01:52:46.241Z,16.87
2019-02-25T01:55:15.188Z,14.73
2019-02-25T01:57:44.156Z,12.40
2019-02-25T02:00:17.319Z,12.83
2019-02-25T02:02:45.747Z,19.33
2019-02-25T02:05:14.875Z,13.20
2019-02-25T02:07:43.297Z,14.13
2019-02-25T02:10:14.413Z,12.47
2019-02-25T02:12:42.939Z,17.77
2019-02-25T02:15:13.986Z,13.23
2019-02-25T02:17:42.483Z,17.80
2019-02-25T02:20:13.265Z,16.73
2019-02-25T02:22:41.670Z,14.27
2019-02-25T02:25:11.547Z,12.23
2019-02-25T02:27:40.705Z,13.47
2019-02-25T02:30:15.206Z,15.80
2019-02-25T02:32:43.639Z,14.97
2019-02-25T02:35:12.136Z,10.50
2019-02-25T02:37:40.559Z,13.90
2019-02-25T02:40:11.658Z,11.63
2019-02-25T02:42:46.058Z,13.80
2019-02-25T02:45:17.608Z,11.10
2019-02-25T02:47:51.676Z,13.60
2019-02-25T02:50:22.709Z,13.77
2019-02-25T02:52:51.211Z,16.47
2019-02-25T02:55:19.693Z,11.40
2019-02-25T02:57:48.146Z,14.73
2019-02-25T03:00:20.310Z,11.10
2019-02-25T03:02:48.828Z,13.20
2019-02-25T03:05:17.918Z,9.13
2019-02-25T03:07:46.444Z,11.83
2019-02-25T03:10:17.048Z,11.00
2019-02-25T03:12:45.481Z,10.90
2019-02-25T03:15:21.311Z,13.77
2019-02-25T03:17:49.701Z,10.67
2019-02-25T03:20:18.601Z,14.93
2019-02-25T03:22:47.072Z,13.67
2019-02-25T03:25:17.871Z,11.23
2019-02-25T03:27:46.316Z,14.43
2019-02-25T03:30:17.715Z,12.40
2019-02-25T03:32:46.401Z,12.17
2019-02-25T03:35:14.976Z,12.87
2019-02-25T03:37:43.837Z,10.40
2019-02-25T03:40:17.601Z,12.20
2019-02-25T03:42:46.074Z,13.83
2019-02-25T03:45:16.207Z,13.17
2019-02-25T03:47:44.692Z,11.40
2019-02-25T03:50:13.936Z,13.00
2019-02-25T03:52:42.450Z,12.87
2019-02-25T03:55:18.026Z,14.03
2019-02-25T03:57:46.673Z,15.33
2019-02-25T04:00:17.909Z,10.83
2019-02-25T04:02:46.335Z,13.83
2019-02-25T04:05:14.821Z,11.03
2019-02-25T04:07:43.723Z,13.23
2019-02-25T04:10:14.419Z,16.10
2019-02-25T04:12:42.963Z,12.67
2019-02-25T04:15:18.349Z,14.57
2019-02-25T04:17:47.157Z,12.90
2019-02-25T04:20:17.454Z,12.47
2019-02-25T04:22:45.923Z,13.70
2019-02-25T04:25:14.391Z,16.27
2019-02-25T04:27:43.005Z,14.93
2019-02-25T04:30:14.047Z,16.47
2019-02-25T04:32:42.470Z,11.03
2019-02-25T04:35:12.417Z,14.13
2019-02-25T04:37:40.843Z,15.50
2019-02-25T04:40:11.509Z,15.20
2019-02-25T04:42:44.209Z,12.50
2019-02-25T04:45:20.920Z,12.10
2019-02-25T04:47:49.360Z,13.23
2019-02-25T04:50:17.861Z,14.47
2019-02-25T04:52:46.285Z,14.07
2019-02-25T04:55:15.893Z,13.97
2019-02-25T04:57:44.347Z,12.87
2019-02-25T05:00:21.097Z,10.93
2019-02-25T05:02:49.651Z,12.73
2019-02-25T05:05:18.022Z,11.17
2019-02-25T05:07:46.458Z,13.97
2019-02-25T05:10:16.076Z,15.13
2019-02-25T05:12:48.848Z,9.87
2019-02-25T05:15:18.897Z,11.77
2019-02-25T05:17:47.347Z,11.83
2019-02-25T05:20:15.768Z,17.17
2019-02-25T05:22:44.255Z,13.60
2019-02-25T05:25:13.338Z,12.83
2019-02-25T05:27:41.761Z,10.60
2019-02-25T05:30:15.357Z,13.07
2019-02-25T05:32:43.817Z,11.37
2019-02-25T05:35:13.364Z,10.83
2019-02-25T05:37:41.788Z,12.97
2019-02-25T05:40:18.492Z,12.27
2019-02-25T05:42:47.337Z,10.53
2019-02-25T05:45:16.294Z,11.27
2019-02-25T05:47:44.839Z,15.63
2019-02-25T05:50:15.302Z,12.37
2019-02-25T05:52:43.765Z,9.50
2019-02-25T05:55:14.184Z,11.93
2019-02-25T05:57:42.665Z,12.83
2019-02-25T06:03:05.445Z,12.53
2019-02-25T06:05:33.896Z,11.20
2019-02-25T06:08:02.369Z,12.43
2019-02-25T06:10:30.804Z,11.43
2019-02-25T06:12:59.236Z,13.30
2019-02-25T06:15:27.633Z,19.23
2019-02-25T06:17:56.099Z,13.57
2019-02-25T06:20:24.522Z,16.20
2019-02-25T06:22:52.944Z,14.70
2019-02-25T06:25:21.445Z,15.17
2019-02-25T06:27:49.855Z,14.10
2019-02-25T06:30:20.943Z,17.57
2019-02-25T06:32:49.790Z,15.30
2019-02-25T06:35:18.199Z,16.97
2019-02-25T06:37:46.917Z,13.37
2019-02-25T06:40:17.771Z,17.00
2019-02-25T06:42:46.577Z,13.33
2019-02-25T06:45:20.777Z,14.87
2019-02-25T06:47:49.267Z,14.33
2019-02-25T06:50:17.775Z,11.67
2019-02-25T06:52:46.234Z,14.73
2019-02-25T06:55:16.217Z,14.17
2019-02-25T06:57:44.742Z,18.13
2019-02-25T07:00:18.198Z,23.10
2019-02-25T07:02:46.646Z,14.97
2019-02-25T07:05:16.759Z,15.07
2019-02-25T07:07:52.743Z,18.53
2019-02-25T07:10:41.438Z,16.50
2019-02-25T07:13:17.292Z,9.93
2019-02-25T07:15:53.222Z,11.40
2019-02-25T07:18:39.394Z,14.83
2019-02-25T07:21:27.598Z,14.47
2019-02-25T07:24:12.627Z,11.00
2019-02-25T07:26:42.766Z,14.27
2019-02-25T07:29:21.632Z,13.87
2019-02-25T07:32:03.617Z,11.87
2019-02-25T07:34:36.416Z,16.20
2019-02-25T07:37:22.480Z,15.60
2019-02-25T07:40:08.681Z,14.27
2019-02-25T07:42:41.474Z,18.50
2019-02-25T07:45:17.409Z,15.07
2019-02-25T07:47:47.570Z,14.00
2019-02-25T07:50:20.340Z,20.63
2019-02-25T07:52:50.445Z,12.40
2019-02-25T07:55:23.256Z,10.20
2019-02-25T07:58:02.093Z,14.63
2019-02-25T08:00:32.187Z,10.67
2019-02-25T08:03:11.108Z,9.70
2019-02-25T08:05:41.157Z,11.80
2019-02-25T08:08:11.267Z,11.60
2019-02-25T08:10:44.103Z,10.13
2019-02-25T08:13:14.154Z,14.57
2019-02-25T08:16:02.293Z,12.10
2019-02-25T08:18:38.041Z,11.80
2019-02-25T08:21:17.322Z,9.93
2019-02-25T08:23:47.463Z,16.70
2019-02-25T08:26:33.642Z,12.67
2019-02-25T08:29:03.729Z,14.97
2019-02-25T08:31:36.785Z,9.93
2019-02-25T08:34:18.146Z,8.90
2019-02-25T08:37:02.338Z,10.77
2019-02-25T08:39:47.614Z,9.90
2019-02-25T08:42:31.084Z,10.83
2019-02-25T08:45:04.181Z,13.50
2019-02-25T08:47:39.419Z,11.33
2019-02-25T08:50:11.074Z,11.40
2019-02-25T08:52:39.552Z,13.20
2019-02-25T08:55:09.703Z,18.50
2019-02-25T08:57:38.300Z,14.57
2019-02-25T09:00:12.289Z,12.80
2019-02-25T09:02:40.796Z,12.47
2019-02-25T09:05:12.801Z,10.63
2019-02-25T09:07:42.801Z,12.87
2019-02-25T09:10:13.616Z,12.93
2019-02-25T09:12:42.273Z,11.50
2019-02-25T09:15:15.159Z,11.50
2019-02-25T09:17:48.496Z,11.77
2019-02-25T09:20:17.007Z,12.90
2019-02-25T09:22:45.432Z,18.30
2019-02-25T09:25:15.542Z,12.73
2019-02-25T09:27:43.979Z,14.77
2019-02-25T09:30:14.958Z,12.70
2019-02-25T09:32:43.968Z,17.33
2019-02-25T09:35:12.523Z,16.33
2019-02-25T09:37:40.946Z,20.50
2019-02-25T09:40:14.696Z,12.23
2019-02-25T09:42:43.198Z,13.80
2019-02-25T09:45:16.616Z,18.60
2019-02-25T09:47:45.137Z,15.27
2019-02-25T09:50:18.874Z,12.90
2019-02-25T09:52:47.311Z,15.60
2019-02-25T09:55:15.823Z,15.97
2019-02-25T09:57:44.255Z,14.17
2019-02-25T10:00:18.499Z,13.40
2019-02-25T10:02:47.017Z,14.77
2019-02-25T10:05:15.513Z,12.93
2019-02-25T10:07:43.947Z,13.00
2019-02-25T10:10:18.842Z,13.83
2019-02-25T10:12:47.245Z,13.80
2019-02-25T10:15:26.696Z,12.13
2019-02-25T10:17:55.171Z,16.80
2019-02-25T10:20:23.661Z,18.20
2019-02-25T10:22:52.134Z,14.47
2019-02-25T10:25:20.571Z,13.90
2019-02-25T10:27:49.799Z,16.03
2019-02-25T10:30:19.971Z,17.23
2019-02-25T10:32:48.401Z,15.37
2019-02-25T10:35:22.063Z,13.50
2019-02-25T10:37:50.489Z,17.00
2019-02-25T10:40:24.053Z,16.57
2019-02-25T10:42:49.114Z,14.37
2019-02-25T10:45:21.947Z,16.03
2019-02-25T10:47:51.657Z,15.27
2019-02-25T10:50:20.797Z,17.77
2019-02-25T10:52:49.641Z,16.27
2019-02-25T10:55:27.562Z,20.43
2019-02-25T10:57:57.590Z,14.97
2019-02-25T11:00:26.283Z,14.47
2019-02-25T11:02:56.445Z,18.40
2019-02-25T11:05:27.319Z,19.63
2019-02-25T11:07:55.153Z,16.93
2019-02-25T11:10:25.318Z,14.00
2019-02-25T11:12:55.527Z,15.00
2019-02-25T11:15:24.017Z,14.40
2019-02-25T11:17:53.972Z,14.90
2019-02-25T11:20:22.665Z,16.20
2019-02-25T11:22:51.085Z,17.83
2019-02-25T11:25:21.377Z,13.93
2019-02-25T11:27:49.803Z,12.33
2019-02-25T11:30:19.495Z,15.93
2019-02-25T11:32:50.698Z,15.73
2019-02-25T11:35:19.263Z,17.23
2019-02-25T11:37:49.559Z,14.17
2019-02-25T11:40:18.431Z,16.00
2019-02-25T11:42:46.891Z,14.13
2019-02-25T11:45:20.126Z,14.70
2019-02-25T11:47:48.585Z,19.63
2019-02-25T11:50:18.940Z,18.10
2019-02-25T11:52:47.388Z,17.70
2019-02-25T11:55:16.958Z,15.50
2019-02-25T11:57:45.731Z,14.57
2019-02-25T12:00:26.862Z,14.03
2019-02-25T12:02:55.399Z,18.90
2019-02-25T12:05:23.802Z,12.97
2019-02-25T12:07:52.951Z,14.90
2019-02-25T12:10:21.396Z,12.93
2019-02-25T12:12:49.838Z,11.20
2019-02-25T12:15:27.157Z,14.53
2019-02-25T12:17:55.542Z,17.67
2019-02-25T12:20:24.116Z,16.33
2019-02-25T12:22:52.547Z,15.53
2019-02-25T12:25:23.577Z,15.23
2019-02-25T12:27:52.128Z,13.97
2019-02-25T12:30:24.543Z,14.37
2019-02-25T12:32:53.027Z,16.03
2019-02-25T12:35:21.480Z,13.70
2019-02-25T12:37:50.046Z,15.43
2019-02-25T12:40:19.342Z,13.37
2019-02-25T12:42:47.854Z,14.17
2019-02-25T12:45:17.081Z,14.97
2019-02-25T12:47:45.462Z,12.77
2019-02-25T12:50:17.811Z,12.33
2019-02-25T12:52:46.252Z,12.87
2019-02-25T12:55:16.110Z,21.50
2019-02-25T12:57:44.569Z,12.87
2019-02-25T13:00:17.816Z,14.63
2019-02-25T13:02:46.294Z,13.77
2019-02-25T13:05:20.505Z,14.90
2019-02-25T13:07:48.968Z,16.27
2019-02-25T13:10:18.698Z,14.07
2019-02-25T13:12:47.237Z,13.33
2019-02-25T13:15:20.286Z,19.53
2019-02-25T13:17:48.802Z,17.63
2019-02-25T13:20:17.301Z,13.70
2019-02-25T13:22:45.732Z,13.77
2019-02-25T13:25:17.218Z,13.43
2019-02-25T13:27:45.918Z,14.20
2019-02-25T13:30:22.957Z,14.90
2019-02-25T13:32:51.459Z,13.83
2019-02-25T13:35:19.898Z,12.93
2019-02-25T13:37:49.163Z,12.93
2019-02-25T13:40:18.540Z,15.27
2019-02-25T13:42:46.969Z,15.27
2019-02-25T13:45:22.065Z,15.57
2019-02-25T13:47:50.523Z,13.33
2019-02-25T13:50:19.523Z,13.93
2019-02-25T13:52:48.976Z,20.13
2019-02-25T13:55:19.330Z,13.33
2019-02-25T13:57:47.739Z,14.83
2019-02-25T14:00:24.794Z,12.83
2019-02-25T14:02:53.292Z,14.40
2019-02-25T14:05:22.715Z,12.90
2019-02-25T14:07:51.188Z,12.23
2019-02-25T14:10:20.545Z,10.97
2019-02-25T14:12:48.965Z,13.07
2019-02-25T14:15:20.136Z,12.30
2019-02-25T14:17:48.751Z,16.27
2019-02-25T14:20:27.903Z,20.23
2019-02-25T14:23:00.199Z,15.70
2019-02-25T14:25:28.994Z,18.47
2019-02-25T14:27:58.245Z,15.17
2019-02-25T14:30:32.719Z,16.07
2019-02-25T14:32:58.539Z,14.10
2019-02-25T14:35:30.022Z,17.27
2019-02-25T14:38:05.120Z,14.87
2019-02-25T14:40:32.536Z,15.73
2019-02-25T14:43:04.050Z,18.37
2019-02-25T14:45:34.268Z,13.90
2019-02-25T14:48:05.262Z,17.90
2019-02-25T14:50:32.299Z,15.00
2019-02-25T14:53:03.249Z,15.50
2019-02-25T14:55:31.052Z,16.27
2019-02-25T14:58:02.221Z,15.50
2019-02-25T15:00:34.341Z,14.73
2019-02-25T15:03:02.664Z,15.10
2019-02-25T15:05:31.213Z,18.67
2019-02-25T15:08:00.191Z,18.20
2019-02-25T15:10:31.151Z,15.10
2019-02-25T15:13:00.981Z,15.70
2019-02-25T15:15:28.993Z,16.70
2019-02-25T15:17:58.254Z,19.23
2019-02-25T15:20:28.817Z,15.37
2019-02-25T15:22:56.986Z,15.00
2019-02-25T15:25:29.107Z,14.27
2019-02-25T15:27:55.681Z,16.13
2019-02-25T15:30:30.845Z,16.40
2019-02-25T15:33:00.233Z,14.70
2019-02-25T15:35:32.377Z,13.77
2019-02-25T15:38:00.728Z,16.70
2019-02-25T15:40:29.762Z,18.07
2019-02-25T15:43:10.382Z,17.87
2019-02-25T15:45:40.661Z,15.73
2019-02-25T15:48:20.824Z,15.40
2019-02-25T15:50:55.473Z,17.03
2019-02-25T15:53:24.950Z,14.03
2019-02-25T15:55:57.212Z,14.07
2019-02-25T15:58:23.613Z,15.80
2019-02-25T16:00:52.220Z,16.40
2019-02-25T16:03:21.582Z,17.03
2019-02-25T16:05:52.314Z,18.03
2019-02-25T16:08:21.261Z,16.33
2019-02-25T16:10:51.299Z,22.50
2019-02-25T16:13:20.586Z,21.07
2019-02-25T16:15:49.212Z,16.87
2019-02-25T16:18:18.342Z,16.07
2019-02-25T16:20:46.813Z,19.30
2019-02-25T16:23:15.587Z,16.70
2019-02-25T16:25:46.196Z,17.00
2019-02-25T16:28:17.322Z,17.03
2019-02-25T16:30:46.829Z,18.53
2019-02-25T16:33:15.576Z,18.33
2019-02-25T16:35:45.998Z,18.97
2019-02-25T16:38:14.470Z,22.73
2019-02-25T16:40:42.877Z,16.90
2019-02-25T16:43:14.418Z,21.13
2019-02-25T16:45:45.257Z,24.10
2019-02-25T16:48:13.287Z,18.13
2019-02-25T16:50:44.012Z,17.37
2019-02-25T16:53:15.482Z,23.13
2019-02-25T16:55:46.361Z,21.20
2019-02-25T16:58:15.433Z,18.07
2019-02-25T17:00:46.153Z,15.07
2019-02-25T17:03:16.097Z,17.00
2019-02-25T17:05:47.735Z,18.97
2019-02-25T17:08:16.709Z,22.63
2019-02-25T17:10:45.126Z,17.47
2019-02-25T17:13:14.918Z,18.53
2019-02-25T17:15:46.448Z,17.13
2019-02-25T17:18:16.140Z,18.53
2019-02-25T17:20:45.181Z,23.80
2019-02-25T17:23:14.089Z,18.27
2019-02-25T17:25:43.661Z,22.00
2019-02-25T17:28:19.811Z,17.63
2019-02-25T17:30:47.289Z,21.03
2019-02-25T17:33:16.256Z,16.90
2019-02-25T17:35:45.802Z,18.63
2019-02-25T17:38:15.061Z,19.33
2019-02-25T17:40:43.510Z,19.40
2019-02-25T17:43:13.982Z,25.07
2019-02-25T17:45:42.451Z,20.93
2019-02-25T17:48:13.193Z,23.30
2019-02-25T17:50:41.632Z,21.73
2019-02-25T17:53:10.375Z,21.80
2019-02-25T17:55:39.204Z,24.07
2019-02-25T17:58:08.829Z,27.77
2019-02-25T18:00:42.279Z,22.93
2019-02-25T18:03:10.678Z,22.17
2019-02-25T18:05:42.531Z,27.07
2019-02-25T18:08:13.278Z,22.70
2019-02-25T18:10:43.179Z,25.23
2019-02-25T18:13:13.053Z,21.10
2019-02-25T18:15:42.094Z,21.90
2019-02-25T18:18:14.076Z,22.00
2019-02-25T18:20:44.086Z,25.13
2019-02-25T18:23:12.523Z,21.57
2019-02-25T18:25:42.067Z,23.90
2019-02-25T18:28:12.791Z,21.73
2019-02-25T18:30:41.850Z,22.27
2019-02-25T18:33:11.764Z,28.03
2019-02-25T18:35:43.455Z,26.27
2019-02-25T18:38:12.311Z,22.97
2019-02-25T18:40:43.479Z,34.63
2019-02-25T18:43:11.339Z,29.23
2019-02-25T18:45:41.087Z,24.33
2019-02-25T18:48:10.198Z,26.10
2019-02-25T18:50:39.554Z,28.47
2019-02-25T18:53:08.687Z,22.60
2019-02-25T18:55:37.735Z,26.10
2019-02-25T18:58:11.915Z,28.23
2019-02-25T19:00:44.636Z,26.23
2019-02-25T19:03:13.233Z,24.13
2019-02-25T19:05:41.720Z,26.63
2019-02-25T19:08:15.082Z,28.13
2019-02-25T19:10:46.147Z,20.97
2019-02-25T19:13:15.989Z,21.53
2019-02-25T19:15:45.538Z,26.83
2019-02-25T19:18:16.003Z,27.60
2019-02-25T19:20:46.272Z,23.70
2019-02-25T19:23:16.370Z,28.23
2019-02-25T19:25:44.985Z,32.40
2019-02-25T19:28:16.636Z,26.37
2019-02-25T19:30:44.053Z,26.67
2019-02-25T19:33:12.712Z,30.63
2019-02-25T19:35:41.295Z,32.40
2019-02-25T19:38:10.326Z,28.90
2019-02-25T19:40:40.770Z,23.70
2019-02-25T19:43:10.993Z,37.17
2019-02-25T19:45:40.894Z,31.57
2019-02-25T19:48:10.036Z,26.73
2019-02-25T19:50:50.227Z,24.03
2019-02-25T19:53:11.217Z,26.10
2019-02-25T19:55:40.842Z,32.80
2019-02-25T19:58:09.336Z,31.67
2019-02-25T20:00:38.044Z,31.73
2019-02-25T20:03:06.589Z,29.57
2019-02-25T20:05:38.803Z,29.87
2019-02-25T20:08:05.390Z,27.20
2019-02-25T20:10:34.216Z,23.73
2019-02-25T20:13:05.331Z,24.50
2019-02-25T20:15:33.092Z,31.40
2019-02-25T20:18:01.517Z,30.67
2019-02-25T20:20:32.472Z,30.03
2019-02-25T20:23:03.864Z,28.93
2019-02-25T20:25:32.222Z,27.63
2019-02-25T20:28:02.505Z,27.57
2019-02-25T20:30:30.980Z,23.67
2019-02-25T20:33:01.291Z,28.83
2019-02-25T20:35:31.313Z,22.53
2019-02-25T20:38:00.537Z,25.80
2019-02-25T20:40:30.480Z,25.17
2019-02-25T20:43:01.021Z,23.63
2019-02-25T20:45:35.256Z,22.53
2019-02-25T20:48:03.593Z,25.10
2019-02-25T20:50:32.176Z,21.53
2019-02-25T20:53:05.025Z,25.47
2019-02-25T20:55:31.652Z,28.70
2019-02-25T20:58:01.073Z,31.40
2019-02-25T21:00:29.537Z,34.80
2019-02-25T21:03:01.039Z,26.33
2019-02-25T21:05:29.553Z,30.53
2019-02-25T21:07:59.836Z,31.47
2019-02-25T21:10:30.589Z,26.60
2019-02-25T21:13:00.055Z,25.87
2019-02-25T21:15:28.689Z,26.27
2019-02-25T21:17:59.958Z,23.77
2019-02-25T21:20:28.877Z,26.57
2019-02-25T21:23:02.000Z,29.13
2019-02-25T21:25:29.135Z,30.93
2019-02-25T21:28:01.328Z,27.30
2019-02-25T21:30:31.423Z,23.50
2019-02-25T21:33:01.996Z,25.00
2019-02-25T21:35:34.147Z,25.53
2019-02-25T21:38:00.650Z,26.53
2019-02-25T21:40:30.186Z,25.50
2019-02-25T21:42:59.303Z,23.07
2019-02-25T21:45:31.746Z,20.33
2019-02-25T21:48:01.098Z,25.13
2019-02-25T21:50:30.881Z,28.13
2019-02-25T21:52:58.905Z,31.80
2019-02-25T21:55:28.538Z,22.83
2019-02-25T21:58:00.036Z,25.97
2019-02-25T22:00:31.908Z,27.87
2019-02-25T22:03:00.610Z,28.67
2019-02-25T22:05:29.048Z,29.63
2019-02-25T22:08:06.358Z,29.63
2019-02-25T22:10:36.816Z,29.77
2019-02-25T22:13:08.791Z,28.57
2019-02-25T22:15:36.681Z,23.83
2019-02-25T22:18:08.601Z,26.70
2019-02-25T22:20:39.741Z,31.33
2019-02-25T22:23:08.026Z,27.30
2019-02-25T22:25:36.600Z,25.10
2019-02-25T22:28:05.877Z,28.47
2019-02-25T22:30:35.276Z,27.33
2019-02-25T22:33:05.324Z,29.37
2019-02-25T22:35:37.409Z,22.27
2019-02-25T22:38:05.150Z,28.60
2019-02-25T22:40:34.912Z,26.43
2019-02-25T22:43:03.812Z,25.33
2019-02-25T22:45:33.086Z,23.17
2019-02-25T22:48:02.482Z,24.60
2019-02-25T22:50:33.895Z,26.47
2019-02-25T22:53:04.245Z,25.17
2019-02-25T22:55:42.614Z,26.80
2019-02-25T22:58:12.747Z,23.13
2019-02-25T23:00:46.718Z,24.20
2019-02-25T23:03:17.690Z,20.43
2019-02-25T23:05:47.875Z,26.17
2019-02-25T23:08:18.166Z,24.00
2019-02-25T23:10:49.813Z,23.67
2019-02-25T23:13:20.043Z,27.07
2019-02-25T23:15:51.249Z,21.37
2019-02-25T23:18:24.503Z,23.20
2019-02-25T23:20:50.935Z,22.33
2019-02-25T23:23:23.883Z,23.37
2019-02-25T23:25:54.183Z,26.90
2019-02-25T23:28:26.130Z,23.10
2019-02-25T23:30:55.424Z,22.93
2019-02-25T23:33:24.659Z,26.87
2019-02-25T23:35:55.521Z,21.40
2019-02-25T23:38:23.480Z,24.53
2019-02-25T23:40:51.919Z,21.87
2019-02-25T23:43:20.328Z,24.00
2019-02-25T23:45:48.860Z,19.03
2019-02-25T23:48:17.362Z,21.90
2019-02-25T23:50:45.832Z,23.33
2019-02-25T23:53:14.265Z,24.20
2019-02-25T23:55:45.090Z,21.30
2019-02-25T23:58:14.698Z,19.03
